Time;durP1;ratioP1;P1;durP2;ratioP2;P2;SDS_P1;SDS_P2;PMS_P1;PMS_P2;Temp;Humidity;BMP_temperature;BMP_pressure;BME280_temperature;BME280_humidity;BME280_pressure;Samples;Min_cycle;Max_cycle;Signal;HPM_P1;HPM_P2
2022/03/30 00:00:36;;;;;;;32.95;18.85;;;;;;;8.21;63.08;100701.81;5034547;28;20501;-80
2022/03/30 00:03:01;;;;;;;33.08;18.85;;;;;;;8.17;62.88;100703.84;5034376;28;20037;-81
2022/03/30 00:05:26;;;;;;;35.13;20.25;;;;;;;8.13;63.14;100703.19;5034343;28;20025;-80
2022/03/30 00:07:53;;;;;;;38.97;18.67;;;;;;;8.12;63.18;100708.59;5034619;28;20048;-81
2022/03/30 00:10:18;;;;;;;31.77;19.20;;;;;;;8.07;63.78;100700.97;5034354;28;20052;-80
2022/03/30 00:12:43;;;;;;;33.65;19.33;;;;;;;8.09;63.21;100709.66;5033977;28;20496;-80
2022/03/30 00:15:09;;;;;;;31.60;19.65;;;;;;;8.05;63.63;100704.69;5034334;28;20025;-80
2022/03/30 00:17:34;;;;;;;28.45;19.60;;;;;;;8.04;63.81;100708.28;5033975;28;20017;-80
2022/03/30 00:20:00;;;;;;;33.25;19.40;;;;;;;8.02;63.79;100696.97;5048314;28;20424;-80
2022/03/30 00:22:26;;;;;;;31.83;19.50;;;;;;;8.02;63.96;100707.53;5034034;28;20038;-81
2022/03/30 00:24:52;;;;;;;33.20;19.70;;;;;;;8.02;64.09;100704.88;5034496;28;20498;-80
2022/03/30 00:27:17;;;;;;;35.35;20.45;;;;;;;7.96;64.23;100696.44;5033577;28;20073;-81
2022/03/30 00:29:44;;;;;;;34.13;19.92;;;;;;;7.98;64.57;100704.25;5033754;28;20022;-81
2022/03/30 00:32:10;;;;;;;33.80;19.98;;;;;;;7.94;64.66;100703.63;5033855;28;20029;-80
2022/03/30 00:34:35;;;;;;;37.13;20.00;;;;;;;7.94;64.43;100700.97;5033560;28;20385;-80
2022/03/30 00:37:01;;;;;;;29.83;19.95;;;;;;;7.91;64.76;100695.91;5033761;28;20034;-81
2022/03/30 00:39:26;;;;;;;31.35;20.45;;;;;;;7.89;64.43;100686.34;5033708;28;20029;-81
2022/03/30 00:41:51;;;;;;;32.80;19.00;;;;;;;7.87;64.35;100683.81;5032368;28;20040;-81
2022/03/30 00:44:17;;;;;;;35.00;20.92;;;;;;;7.81;64.33;100678.97;5049038;28;20102;-80
2022/03/30 00:46:43;;;;;;;30.73;18.80;;;;;;;7.76;64.84;100684.56;5033406;28;20026;-80
2022/03/30 00:49:09;;;;;;;36.55;21.42;;;;;;;7.73;65.18;100681.28;5033550;28;20036;-81
2022/03/30 00:51:34;;;;;;;31.17;19.48;;;;;;;7.69;65.29;100682.41;5033774;28;20083;-80
2022/03/30 00:53:59;;;;;;;34.00;20.83;;;;;;;7.66;65.64;100682.63;5037658;28;20033;-80
2022/03/30 00:56:29;;;;;;;31.02;19.67;;;;;;;7.66;65.38;100690.53;5053416;28;20497;-81
2022/03/30 00:58:55;;;;;;;39.30;20.52;;;;;;;7.64;65.67;100695.94;5053162;28;20045;-80
2022/03/30 01:01:22;;;;;;;38.05;21.15;;;;;;;7.62;65.60;100697.00;5049008;28;20021;-80
2022/03/30 01:03:47;;;;;;;32.78;19.10;;;;;;;7.56;65.56;100685.88;5033289;28;20036;-80
2022/03/30 01:06:13;;;;;;;32.05;20.10;;;;;;;7.51;65.87;100684.47;5033257;28;20029;-80
2022/03/30 01:08:39;;;;;;;35.90;19.88;;;;;;;7.47;65.55;100686.50;5033242;28;20087;-80
2022/03/30 01:11:04;;;;;;;33.67;19.75;;;;;;;7.40;65.65;100678.13;5033269;28;20032;-80
2022/03/30 01:13:30;;;;;;;37.55;19.55;;;;;;;7.44;65.64;100678.75;5033129;28;20033;-80
2022/03/30 01:15:55;;;;;;;36.20;19.88;;;;;;;7.37;65.95;100669.56;5032907;28;20030;-80
2022/03/30 01:18:21;;;;;;;34.67;19.08;;;;;;;7.35;65.54;100671.47;5033096;28;20428;-80
2022/03/30 01:20:49;;;;;;;32.50;19.25;;;;;;;7.34;65.85;100669.75;5033290;28;20037;-81
2022/03/30 01:23:15;;;;;;;33.15;19.17;;;;;;;7.30;66.02;100673.56;5031861;28;20058;-80
2022/03/30 01:25:41;;;;;;;30.70;19.95;;;;;;;7.29;66.08;100666.56;5032730;28;20441;-80
2022/03/30 01:28:06;;;;;;;33.17;19.95;;;;;;;7.25;66.23;100663.28;5032969;28;20025;-81
2022/03/30 01:33:15;;;;;;;30.73;19.33;;;;;;;7.17;65.85;100661.13;5037199;28;20072;-80
2022/03/30 01:35:41;;;;;;;34.70;19.98;;;;;;;7.13;65.93;100658.81;5037023;28;20060;-81
2022/03/30 01:38:06;;;;;;;32.58;20.73;;;;;;;7.09;66.49;100658.13;5040922;28;20036;-80
2022/03/30 01:40:33;;;;;;;33.63;19.73;;;;;;;7.05;66.54;100656.66;5037057;28;20380;-80
2022/03/30 01:42:58;;;;;;;34.22;20.73;;;;;;;7.01;66.39;100649.88;5036948;28;20044;-80
2022/03/30 01:45:24;;;;;;;33.88;19.83;;;;;;;7.00;66.50;100650.84;5038284;28;20037;-80
2022/03/30 01:47:52;;;;;;;37.38;19.67;;;;;;;6.97;66.81;100653.66;5047759;28;20053;-81
2022/03/30 01:50:18;;;;;;;31.30;19.85;;;;;;;6.95;66.82;100652.94;5047613;28;20021;-81
2022/03/30 01:52:43;;;;;;;35.22;20.02;;;;;;;6.91;67.26;100649.63;5040394;28;20028;-80
2022/03/30 01:55:09;;;;;;;38.55;20.58;;;;;;;6.87;67.63;100645.50;5050388;28;20025;-80
2022/03/30 01:57:34;;;;;;;35.65;20.90;;;;;;;6.89;67.98;100646.22;5056584;28;20107;-81
2022/03/30 02:00:03;;;;;;;37.90;20.75;;;;;;;6.81;68.15;100636.19;5046864;28;20084;-81
2022/03/30 02:02:29;;;;;;;35.08;19.58;;;;;;;6.83;67.74;100636.09;5037081;28;20056;-81
2022/03/30 02:04:54;;;;;;;32.17;19.38;;;;;;;6.82;67.76;100643.13;5036492;28;20029;-80
2022/03/30 02:07:20;;;;;;;33.15;19.67;;;;;;;6.76;67.92;100643.56;5036675;28;20025;-80
2022/03/30 02:09:46;;;;;;;34.33;19.17;;;;;;;6.70;67.76;100637.81;5036621;28;20038;-80
2022/03/30 02:12:11;;;;;;;38.42;20.98;;;;;;;6.66;67.78;100634.50;5036427;28;20025;-81
2022/03/30 02:14:36;;;;;;;34.92;20.35;;;;;;;6.61;68.09;100640.09;5036390;28;20526;-81
2022/03/30 02:17:02;;;;;;;39.72;20.70;;;;;;;6.58;68.10;100640.28;5052642;28;20025;-80
2022/03/30 02:19:27;;;;;;;34.47;20.05;;;;;;;6.56;68.09;100634.25;5056230;28;20033;-80
2022/03/30 02:21:53;;;;;;;35.13;19.83;;;;;;;6.57;68.07;100629.81;5048667;28;20096;-80
2022/03/30 02:24:18;;;;;;;37.35;20.15;;;;;;;6.53;68.22;100626.53;5036136;28;20025;-80
2022/03/30 02:26:45;;;;;;;36.20;20.95;;;;;;;6.50;68.18;100629.38;5100808;22;20079;-88
2022/03/30 02:29:13;;;;;;;33.80;20.45;;;;;;;6.42;68.29;100619.28;5040036;28;20085;-88
2022/03/30 02:31:39;;;;;;;37.25;21.13;;;;;;;6.37;68.54;100610.81;5039569;28;20037;-89
2022/03/30 02:34:04;;;;;;;34.78;21.05;;;;;;;6.36;68.56;100614.41;5040176;28;20052;-88
2022/03/30 02:36:30;;;;;;;37.47;21.38;;;;;;;6.34;68.84;100608.34;5025013;28;20036;-89
2022/03/30 02:38:57;;;;;;;34.85;21.02;;;;;;;6.30;68.87;100607.72;5031531;28;20018;-89
2022/03/30 02:41:22;;;;;;;33.78;20.55;;;;;;;6.30;68.75;100601.59;5052417;28;20029;-88
2022/03/30 02:43:48;;;;;;;33.92;20.65;;;;;;;6.28;68.80;100596.41;5034529;28;20129;-87
2022/03/30 02:46:13;;;;;;;34.67;21.15;;;;;;;6.26;68.66;100598.31;5028742;28;20034;-88
2022/03/30 02:48:40;;;;;;;30.27;19.70;;;;;;;6.21;68.93;100583.69;5040763;28;20042;-89
2022/03/30 02:51:07;;;;;;;37.00;20.45;;;;;;;6.18;69.15;100590.03;5046361;28;20038;-89
2022/03/30 02:53:33;;;;;;;31.75;20.58;;;;;;;6.13;69.07;100589.47;5028606;28;20033;-89
2022/03/30 02:55:59;;;;;;;35.72;21.02;;;;;;;6.10;69.26;100593.13;5025862;28;20057;-88
2022/03/30 02:58:25;;;;;;;38.95;21.50;;;;;;;6.09;69.19;100585.31;5060564;28;20030;-88
2022/03/30 03:00:50;;;;;;;38.13;21.08;;;;;;;6.08;69.21;100587.09;5031249;28;20091;-88
2022/03/30 03:03:15;;;;;;;36.10;21.45;;;;;;;6.08;69.34;100586.28;5011505;28;20041;-88
2022/03/30 03:05:44;;;;;;;35.60;20.08;;;;;;;6.05;69.24;100581.19;5042427;28;20412;-87
2022/03/30 03:08:11;;;;;;;35.50;21.33;;;;;;;6.01;69.08;100580.53;5036169;28;20041;-86
2022/03/30 03:10:39;;;;;;;36.88;20.88;;;;;;;5.96;69.65;100571.16;5035974;28;20014;-88
2022/03/30 03:13:05;;;;;;;34.72;20.65;;;;;;;5.95;69.54;100578.22;5032897;28;20046;-87
2022/03/30 03:15:34;;;;;;;35.33;19.80;;;;;;;6.00;69.47;100580.63;5037982;28;20021;-88
2022/03/30 03:18:03;;;;;;;36.38;20.17;;;;;;;6.01;69.62;100579.66;5026716;28;20026;-88
2022/03/30 03:20:30;;;;;;;37.08;19.83;;;;;;;5.91;69.88;100572.31;5030819;28;20258;-89
2022/03/30 03:22:56;;;;;;;41.05;20.98;;;;;;;5.92;69.79;100570.50;5025674;28;20120;-89
2022/03/30 03:25:23;;;;;;;35.60;19.85;;;;;;;5.96;69.98;100568.53;5034315;28;20160;-87
2022/03/30 03:27:49;;;;;;;34.92;19.95;;;;;;;5.90;70.11;100560.06;5037242;28;20018;-87
2022/03/30 03:30:15;;;;;;;30.88;19.60;;;;;;;5.85;70.14;100561.28;5036392;28;20128;-87
2022/03/30 03:32:41;;;;;;;31.58;20.00;;;;;;;5.89;70.07;100563.63;5036785;28;20038;-88
2022/03/30 03:35:09;;;;;;;34.78;19.98;;;;;;;5.83;70.12;100557.88;5027943;28;20044;-89
2022/03/30 03:37:35;;;;;;;38.50;21.02;;;;;;;5.78;70.08;100558.19;5024791;28;20049;-88
2022/03/30 03:40:01;;;;;;;35.72;20.55;;;;;;;5.82;70.03;100564.94;5024391;28;20028;-89
2022/03/30 03:42:35;;;;;;;39.60;21.25;;;;;;;5.73;69.83;100542.66;5024327;28;20030;-88
2022/03/30 03:45:02;;;;;;;37.22;20.63;;;;;;;5.75;69.95;100556.56;5025315;28;20500;-89
2022/03/30 03:47:27;;;;;;;38.63;21.65;;;;;;;5.67;70.13;100548.28;5025152;28;20050;-89
2022/03/30 03:50:00;;;;;;;36.67;20.92;;;;;;;5.71;70.02;100556.84;5037897;28;20472;-89
2022/03/30 03:52:28;;;;;;;36.28;20.52;;;;;;;5.63;70.46;100552.06;5026292;28;20321;-89
2022/03/30 03:54:53;;;;;;;38.83;21.10;;;;;;;5.60;70.16;100544.34;5040110;28;20033;-88
2022/03/30 03:57:18;;;;;;;34.95;20.63;;;;;;;5.61;70.48;100551.28;5025490;28;20029;-88
2022/03/30 03:59:44;;;;;;;34.95;20.70;;;;;;;5.65;70.36;100558.06;5030525;28;20350;-88
2022/03/30 04:02:09;;;;;;;30.92;20.15;;;;;;;5.63;70.17;100552.06;5026630;28;20041;-88
2022/03/30 04:04:35;;;;;;;35.45;19.95;;;;;;;5.57;70.01;100552.41;5051384;28;20067;-87
2022/03/30 04:07:01;;;;;;;35.60;19.98;;;;;;;5.55;70.25;100554.31;5049110;28;20030;-89
2022/03/30 04:09:26;;;;;;;33.05;20.13;;;;;;;5.50;70.53;100548.47;5026720;28;20033;-89
2022/03/30 04:11:52;;;;;;;34.70;21.23;;;;;;;5.39;70.17;100533.28;5041306;28;20069;-89
2022/03/30 04:14:19;;;;;;;31.95;20.25;;;;;;;5.38;70.81;100537.72;5063981;28;20040;-89
2022/03/30 04:16:46;;;;;;;34.20;19.92;;;;;;;5.42;70.95;100542.81;5064435;28;20071;-89
2022/03/30 04:19:17;;;;;;;36.15;20.55;;;;;;;5.29;70.54;100525.09;5046587;28;20064;-89
2022/03/30 04:21:45;;;;;;;32.05;19.60;;;;;;;5.31;70.96;100530.28;5029810;28;20029;-89
2022/03/30 04:24:14;;;;;;;35.60;20.70;;;;;;;5.26;70.84;100530.56;5028127;28;20050;-89
2022/03/30 04:26:39;;;;;;;43.50;20.23;;;;;;;5.24;71.18;100537.69;5043290;28;20064;-88
2022/03/30 04:29:06;;;;;;;35.95;20.45;;;;;;;5.21;71.00;100529.97;5042369;28;20088;-89
2022/03/30 04:31:32;;;;;;;31.80;19.33;;;;;;;5.26;71.04;100537.59;5043972;28;20498;-89
2022/03/30 04:33:57;;;;;;;38.58;21.05;;;;;;;5.24;70.83;100532.41;5044010;28;20112;-89
2022/03/30 04:36:23;;;;;;;31.80;20.58;;;;;;;5.16;71.09;100530.25;5043898;28;20029;-89
2022/03/30 04:38:49;;;;;;;38.58;20.35;;;;;;;5.14;70.68;100529.47;5041661;28;20044;-89
2022/03/30 04:41:14;;;;;;;36.10;20.05;;;;;;;5.13;70.95;100538.34;5043337;28;20029;-89
2022/03/30 04:43:42;;;;;;;31.55;20.30;;;;;;;5.05;70.70;100537.09;5044723;28;20100;-89
2022/03/30 04:46:08;;;;;;;35.40;20.10;;;;;;;5.04;70.85;100549.38;5038583;28;20113;-88
2022/03/30 04:48:34;;;;;;;40.40;21.20;;;;;;;4.99;71.02;100548.81;5035061;28;20021;-87
2022/03/30 04:51:00;;;;;;;35.92;21.17;;;;;;;5.00;70.94;100551.34;5029626;28;20032;-89
2022/03/30 04:53:25;;;;;;;35.53;20.63;;;;;;;4.90;71.28;100538.84;5025647;28;20089;-88
2022/03/30 04:55:51;;;;;;;36.03;21.73;;;;;;;4.89;71.39;100545.88;5023692;28;20444;-88
2022/03/30 04:58:16;;;;;;;42.63;21.98;;;;;;;4.85;71.63;100549.63;5026009;28;20033;-88
2022/03/30 05:00:42;;;;;;;38.00;20.67;;;;;;;4.81;71.47;100556.84;5029525;28;20033;-87
2022/03/30 05:03:08;;;;;;;42.63;21.35;;;;;;;4.73;71.71;100550.31;5028056;28;20051;-88
2022/03/30 05:05:33;;;;;;;35.03;21.48;;;;;;;4.68;72.02;100547.09;5026610;28;20033;-89
2022/03/30 05:07:58;;;;;;;37.47;20.35;;;;;;;4.61;72.29;100538.69;5024397;28;20104;-89
2022/03/30 05:10:24;;;;;;;36.42;21.67;;;;;;;4.55;72.61;100534.66;5021867;28;20480;-88
2022/03/30 05:12:50;;;;;;;34.03;21.88;;;;;;;4.60;72.43;100545.75;5044105;28;20078;-88
2022/03/30 05:15:16;;;;;;;46.63;23.13;;;;;;;4.54;72.67;100537.34;5061148;28;20025;-88
2022/03/30 05:17:44;;;;;;;41.40;21.83;;;;;;;4.45;72.57;100536.09;5053953;28;20033;-88
2022/03/30 05:20:11;;;;;;;34.97;20.85;;;;;;;4.40;73.21;100528.47;5021467;28;20086;-88
2022/03/30 05:22:37;;;;;;;39.78;21.00;;;;;;;4.37;73.62;100520.75;5019931;28;20033;-89
2022/03/30 05:25:02;;;;;;;42.83;22.17;;;;;;;4.36;73.76;100521.66;5020685;28;20026;-88
2022/03/30 05:27:28;;;;;;;41.22;22.52;;;;;;;4.43;73.82;100537.97;5030108;28;20053;-88
2022/03/30 05:29:53;;;;;;;43.20;21.77;;;;;;;4.40;73.88;100538.13;5038933;28;20026;-87
2022/03/30 05:32:21;;;;;;;40.10;22.05;;;;;;;4.28;73.92;100534.41;5040347;28;20033;-88
2022/03/30 05:34:46;;;;;;;32.58;22.23;;;;;;;4.25;74.49;100529.31;5041270;28;20030;-89
2022/03/30 05:37:12;;;;;;;40.72;21.48;;;;;;;4.29;74.19;100537.88;5041228;28;20030;-87
2022/03/30 05:39:42;;;;;;;43.20;22.80;;;;;;;4.28;74.19;100536.19;5030910;28;20061;-88
2022/03/30 05:42:14;;;;;;;37.00;21.95;;;;;;;4.20;74.29;100526.09;5021930;28;20026;-87
2022/03/30 05:44:40;;;;;;;37.50;21.70;;;;;;;4.25;74.22;100532.78;5021528;28;20018;-88
2022/03/30 05:47:07;;;;;;;41.80;21.88;;;;;;;4.19;74.00;100519.13;5021763;28;20053;-88
2022/03/30 05:49:36;;;;;;;39.00;22.48;;;;;;;4.23;74.70;100524.16;5037180;28;20041;-87
2022/03/30 05:52:02;;;;;;;41.40;22.33;;;;;;;4.19;74.56;100517.34;5033014;28;20044;-88
2022/03/30 05:54:28;;;;;;;36.00;21.23;;;;;;;4.25;74.68;100529.31;5020971;28;20042;-88
2022/03/30 05:57:02;;;;;;;40.20;22.75;;;;;;;4.20;74.82;100526.94;5023417;28;20025;-87
2022/03/30 05:59:39;;;;;;;38.58;22.20;;;;;;;4.19;74.56;100532.28;5036035;28;20022;-86
2022/03/30 06:02:09;;;;;;;41.97;21.75;;;;;;;4.20;75.16;100534.81;5029338;28;20058;-88
2022/03/30 06:04:35;;;;;;;36.38;22.10;;;;;;;4.16;75.35;100529.81;5026983;28;20025;-88
2022/03/30 06:07:01;;;;;;;40.65;24.40;;;;;;;4.20;75.33;100542.72;5020874;28;20089;-88
2022/03/30 06:09:33;;;;;;;43.72;22.33;;;;;;;4.18;74.90;100531.44;5036439;28;20090;-87
2022/03/30 06:12:13;;;;;;;;;;;;;;;;;;;;;
2022/03/30 06:14:38;;;;;;;44.05;23.45;;;;;;;4.19;75.57;100545.41;5040589;28;20029;-87
2022/03/30 06:17:06;;;;;;;40.28;22.83;;;;;;;4.19;75.25;100540.16;5040005;28;20025;-89
2022/03/30 06:19:35;;;;;;;42.63;23.00;;;;;;;4.26;75.53;100557.28;5032512;28;20037;-89
2022/03/30 06:22:05;;;;;;;34.78;21.65;;;;;;;4.29;75.16;100554.50;5017472;28;20065;-85
2022/03/30 06:24:31;;;;;;;41.65;22.73;;;;;;;4.26;75.20;100549.41;5016832;28;20559;-87
2022/03/30 06:26:56;;;;;;;41.88;21.75;;;;;;;4.32;75.09;100551.69;5017858;28;20041;-86
2022/03/30 06:29:22;;;;;;;47.60;23.02;;;;;;;4.25;75.29;100538.06;5037446;28;20029;-86
2022/03/30 06:31:47;;;;;;;45.42;24.02;;;;;;;4.31;75.11;100541.25;5035674;28;20063;-86
2022/03/30 06:34:12;;;;;;;39.88;22.13;;;;;;;4.37;75.17;100554.09;5033796;28;20033;-85
2022/03/30 06:36:38;;;;;;;42.03;24.35;;;;;;;4.42;75.83;100552.03;5016054;28;20050;-85
2022/03/30 06:39:04;;;;;;;37.92;22.73;;;;;;;4.40;75.39;100541.59;5031697;28;20028;-85
2022/03/30 06:41:30;;;;;;;40.05;21.95;;;;;;;4.52;75.48;100555.84;5040084;28;20045;-85
2022/03/30 06:43:56;;;;;;;44.65;22.58;;;;;;;4.51;75.16;100540.16;5033189;28;20091;-84
2022/03/30 06:46:22;;;;;;;42.45;22.05;;;;;;;4.62;75.33;100551.75;5017757;28;20060;-85
2022/03/30 06:48:48;;;;;;;43.53;22.20;;;;;;;4.63;74.85;100550.00;5025994;28;20649;-85
2022/03/30 06:51:14;;;;;;;45.90;24.52;;;;;;;4.70;75.18;100556.59;5030895;28;20457;-85
2022/03/30 06:53:43;;;;;;;42.08;22.83;;;;;;;4.72;74.82;100546.00;5028291;28;20036;-86
2022/03/30 06:56:10;;;;;;;37.97;21.65;;;;;;;4.74;74.67;100541.50;5021621;28;20532;-85
2022/03/30 06:58:38;;;;;;;43.67;21.83;;;;;;;4.80;74.80;100551.66;5036949;28;20060;-85
2022/03/30 07:01:06;;;;;;;39.90;21.47;;;;;;;4.83;74.34;100540.97;5036973;28;20051;-86
2022/03/30 07:03:31;;;;;;;40.88;22.20;;;;;;;4.82;74.40;100521.69;5036569;28;20350;-86
2022/03/30 07:06:03;;;;;;;35.95;21.05;;;;;;;4.92;73.92;100534.31;5035299;28;20042;-86
2022/03/30 07:11:12;;;;;;;34.70;19.55;;;;;;;5.05;73.83;100545.00;5019229;28;20095;-86
2022/03/30 07:13:37;;;;;;;35.33;20.63;;;;;;;5.10;73.54;100542.94;5018745;28;20133;-85
2022/03/30 07:16:03;;;;;;;39.03;20.85;;;;;;;5.17;73.52;100539.00;5016857;28;20046;-84
2022/03/30 07:18:28;;;;;;;38.13;20.23;;;;;;;5.30;73.86;100537.34;5016078;28;20037;-86
2022/03/30 07:20:54;;;;;;;36.95;20.77;;;;;;;5.45;73.76;100540.00;5034184;28;20029;-85
2022/03/30 07:23:27;;;;;;;38.35;21.02;;;;;;;5.62;72.89;100538.97;5036268;28;20034;-85
2022/03/30 07:25:52;;;;;;;39.42;21.10;;;;;;;5.78;72.73;100534.47;5035856;28;20050;-86
2022/03/30 07:28:18;;;;;;;34.88;21.00;;;;;;;5.90;71.59;100533.69;5035480;28;20025;-86
2022/03/30 07:30:50;;;;;;;38.08;20.75;;;;;;;6.13;71.38;100551.69;5016676;28;20040;-85
2022/03/30 07:33:16;;;;;;;36.00;19.60;;;;;;;6.28;70.75;100541.03;5037070;28;20400;-86
2022/03/30 07:35:46;;;;;;;37.33;20.42;;;;;;;6.42;69.69;100545.41;5042975;28;20087;-86
2022/03/30 07:38:16;;;;;;;41.47;20.70;;;;;;;6.56;69.19;100541.03;5037073;28;20480;-85
2022/03/30 07:40:43;;;;;;;37.25;21.13;;;;;;;6.72;69.01;100540.91;5055368;28;20381;-86
2022/03/30 07:43:09;;;;;;;35.63;21.95;;;;;;;6.87;68.24;100539.06;5021986;28;20127;-86
2022/03/30 07:45:34;;;;;;;39.90;22.63;;;;;;;7.01;67.95;100536.31;5031772;28;20025;-86
2022/03/30 07:48:00;;;;;;;33.63;22.27;;;;;;;7.17;68.45;100526.44;5032629;28;20127;-85
2022/03/30 07:50:26;;;;;;;34.78;21.15;;;;;;;7.38;67.62;100533.88;5014786;28;20050;-85
2022/03/30 07:52:52;;;;;;;32.30;20.15;;;;;;;7.63;66.83;100529.50;5035863;28;20067;-86
2022/03/30 07:55:17;;;;;;;30.50;18.75;;;;;;;7.74;66.20;100527.84;5044592;28;20035;-85
2022/03/30 07:57:44;;;;;;;31.40;19.08;;;;;;;7.87;65.05;100530.44;5038186;28;20785;-84
2022/03/30 08:00:12;;;;;;;36.75;17.88;;;;;;;7.94;63.71;100526.44;5044888;28;20028;-85
2022/03/30 08:02:38;;;;;;;29.23;17.90;;;;;;;7.99;64.00;100528.72;5037955;28;20037;-85
2022/03/30 08:05:04;;;;;;;35.22;18.50;;;;;;;8.05;63.23;100528.31;5030978;28;20541;-85
2022/03/30 08:07:30;;;;;;;34.67;19.50;;;;;;;8.15;63.59;100525.84;5021809;28;20075;-85
2022/03/30 08:09:56;;;;;;;31.20;19.02;;;;;;;8.26;63.26;100533.88;5031718;28;20418;-85
2022/03/30 08:12:22;;;;;;;32.65;18.45;;;;;;;8.43;62.99;100526.56;5020863;28;20354;-85
2022/03/30 08:14:48;;;;;;;29.25;17.85;;;;;;;8.67;62.68;100532.66;5021783;28;20037;-85
2022/03/30 08:17:14;;;;;;;27.60;17.40;;;;;;;8.92;61.91;100533.50;5024860;28;20052;-85
2022/03/30 08:19:40;;;;;;;29.05;18.40;;;;;;;9.17;61.64;100529.03;5024780;28;20417;-85
2022/03/30 08:24:50;;;;;;;32.38;19.48;;;;;;;9.59;60.64;100535.50;5032586;28;20048;-85
2022/03/30 08:27:21;;;;;;;36.22;19.90;;;;;;;9.85;60.12;100531.78;5029632;28;20042;-87
2022/03/30 08:29:47;;;;;;;30.58;17.92;;;;;;;9.97;58.74;100531.63;5025228;28;20089;-87
2022/03/30 08:32:17;;;;;;;31.75;18.52;;;;;;;10.23;58.91;100527.88;5033030;28;20045;-87
2022/03/30 08:34:43;;;;;;;32.00;18.30;;;;;;;10.40;57.49;100523.91;5033451;28;20026;-88
2022/03/30 08:37:09;;;;;;;36.33;18.65;;;;;;;10.60;57.01;100525.75;5033651;28;20040;-88
2022/03/30 08:39:35;;;;;;;28.33;17.95;;;;;;;10.85;56.19;100529.06;5030371;28;20030;-87
2022/03/30 08:42:03;;;;;;;34.92;17.25;;;;;;;10.89;55.34;100523.38;5033319;28;20034;-86
2022/03/30 08:44:29;;;;;;;28.98;16.48;;;;;;;10.96;55.51;100514.88;5022986;28;20423;-87
2022/03/30 08:46:54;;;;;;;27.83;16.15;;;;;;;11.16;54.75;100516.72;5036194;28;20029;-86
2022/03/30 08:49:20;;;;;;;27.45;16.13;;;;;;;11.34;54.42;100516.13;5052434;28;20029;-86
2022/03/30 08:51:47;;;;;;;27.77;16.05;;;;;;;11.47;53.87;100516.75;5046485;28;20469;-86
2022/03/30 08:54:13;;;;;;;29.58;16.33;;;;;;;11.60;53.11;100516.56;5033398;28;20101;-87
2022/03/30 08:56:40;;;;;;;27.00;16.40;;;;;;;11.76;53.03;100508.94;5031844;28;20496;-88
2022/03/30 08:59:07;;;;;;;26.20;16.08;;;;;;;11.79;52.08;100513.13;5035086;28;20028;-86
2022/03/30 09:01:41;;;;;;;26.73;15.35;;;;;;;11.76;52.09;100513.41;5025798;28;20083;-88
2022/03/30 09:04:11;;;;;;;25.83;14.90;;;;;;;11.89;52.73;100513.16;5042476;28;20034;-87
2022/03/30 09:06:57;;;;;;;25.95;15.45;;;;;;;12.05;52.38;100512.72;5039930;28;20053;-88
2022/03/30 09:09:46;;;;;;;22.48;14.15;;;;;;;12.22;53.24;100509.38;5049942;28;20088;-88
2022/03/30 09:12:15;;;;;;;28.17;15.63;;;;;;;12.42;52.24;100504.09;5025980;28;20057;-87
2022/03/30 09:14:42;;;;;;;22.95;14.55;;;;;;;12.61;51.35;100493.47;5024482;28;20037;-88
2022/03/30 09:17:08;;;;;;;23.95;14.63;;;;;;;12.71;50.90;100504.16;5023386;28;20116;-89
2022/03/30 09:19:39;;;;;;;25.90;14.48;;;;;;;12.94;50.47;100494.03;5018961;28;20068;-86
2022/03/30 09:22:07;;;;;;;25.83;14.50;;;;;;;13.16;49.77;100490.22;5033392;28;20191;-88
2022/03/30 09:24:35;;;;;;;25.30;14.80;;;;;;;13.28;48.88;100488.22;5061294;28;20464;-87
2022/03/30 09:27:05;;;;;;;21.50;14.50;;;;;;;13.40;50.14;100478.25;5046525;28;20133;-87
2022/03/30 09:29:34;;;;;;;22.92;14.18;;;;;;;13.40;49.01;100488.94;5026783;28;20480;-88
2022/03/30 09:32:09;;;;;;;;;;;;;;;13.69;51.59;100484.34;5018233;28;20042;-87
2022/03/30 09:34:48;;;;;;;25.20;14.98;;;;;;;13.58;49.01;100473.84;5015063;28;19979;-87
2022/03/30 09:37:13;;;;;;;21.58;13.95;;;;;;;13.77;47.71;100472.06;5027813;28;20060;-88
2022/03/30 09:39:43;;;;;;;22.80;13.43;;;;;;;13.91;47.35;100471.59;5030450;28;20037;-88
2022/03/30 09:42:16;;;;;;;;;;;;;;;14.22;50.85;100473.94;5032239;28;20033;-87
2022/03/30 09:44:48;;;;;;;21.90;13.48;;;;;;;14.30;46.74;100467.84;5022374;28;19932;-88
2022/03/30 09:47:14;;;;;;;23.38;14.43;;;;;;;14.32;45.98;100464.03;5018709;28;20141;-87
2022/03/30 09:49:45;;;;;;;21.88;14.27;;;;;;;14.37;45.06;100468.91;5012807;28;20061;-89
2022/03/30 09:52:21;;;;;;;22.73;14.60;;;;;;;14.52;46.06;100462.06;5012173;28;20026;-88
2022/03/30 09:55:05;;;;;;;22.80;14.93;;;;;;;14.65;46.66;100458.19;5019405;28;20445;-87
2022/03/30 09:57:40;;;;;;;21.98;14.60;;;;;;;14.90;45.63;100460.06;5033782;28;20065;-86
2022/03/30 10:00:14;;;;;;;21.60;13.95;;;;;;;15.07;45.28;100461.06;5037137;28;20051;-87
2022/03/30 10:02:43;;;;;;;27.10;15.75;;;;;;;15.03;43.24;100461.50;5024858;28;20456;-86
2022/03/30 10:05:22;;;;;;;22.88;15.13;;;;;;;15.34;44.57;100456.53;5030580;28;20030;-86
2022/03/30 10:07:47;;;;;;;;;;;;;;;15.61;46.79;100458.19;5023026;28;20519;-86
2022/03/30 10:10:16;;;;;;;22.92;14.10;;;;;;;15.51;42.27;100450.25;5034340;28;19980;-86
2022/03/30 10:12:44;;;;;;;23.05;14.65;;;;;;;15.72;42.70;100449.88;5015597;28;20026;-87
2022/03/30 10:15:13;;;;;;;23.77;14.95;;;;;;;15.82;42.47;100440.88;5015734;28;20037;-87
2022/03/30 10:17:39;;;;;;;21.95;13.93;;;;;;;15.99;41.05;100436.44;5015677;28;20041;-88
2022/03/30 10:20:08;;;;;;;22.17;14.80;;;;;;;16.35;40.98;100439.69;5015625;28;20037;-87
2022/03/30 10:23:01;;;;;;;22.77;14.52;;;;;;;16.37;42.53;100443.06;5014489;28;20057;-86
2022/03/30 10:25:48;;;;;;;24.85;15.35;;;;;;;16.50;43.30;100434.50;5016469;28;20465;-87
2022/03/30 10:28:20;;;;;;;22.85;15.35;;;;;;;16.38;40.38;100434.00;5018020;28;20088;-86
2022/03/30 10:30:50;;;;;;;25.73;14.38;;;;;;;16.39;39.28;100435.69;5016579;28;20029;-88
2022/03/30 10:33:29;;;;;;;22.67;14.23;;;;;;;16.51;40.66;100432.69;5019498;28;20033;-86
2022/03/30 10:35:56;;;;;;;21.88;14.57;;;;;;;16.52;39.57;100426.31;5019422;28;20087;-85
2022/03/30 10:38:24;;;;;;;26.75;14.25;;;;;;;16.48;38.86;100424.97;5029172;28;20053;-86
2022/03/30 10:41:06;;;;;;;19.13;13.67;;;;;;;16.36;40.69;100421.78;5030958;28;20052;-87
2022/03/30 10:43:31;;;;;;;19.92;13.82;;;;;;;16.69;39.52;100416.44;5032732;28;20046;-86
2022/03/30 10:46:00;;;;;;;23.15;13.95;;;;;;;16.86;39.14;100414.63;5033519;28;20032;-86
2022/03/30 10:48:28;;;;;;;28.20;14.52;;;;;;;17.05;38.91;100411.56;5033745;28;20151;-87
2022/03/30 10:50:56;;;;;;;20.40;13.57;;;;;;;17.18;37.43;100401.13;5033021;28;20116;-87
2022/03/30 10:53:31;;;;;;;19.25;13.52;;;;;;;17.29;39.01;100401.78;5034989;28;20054;-87
2022/03/30 10:56:14;;;;;;;23.05;13.90;;;;;;;17.53;38.50;100399.00;5034920;28;20060;-86
2022/03/30 10:58:49;;;;;;;21.35;13.48;;;;;;;17.86;38.04;100396.16;5022998;28;20091;-86
2022/03/30 11:01:22;;;;;;;23.80;14.27;;;;;;;18.17;37.35;100394.50;5031385;28;20032;-86
2022/03/30 11:04:02;;;;;;;22.33;14.18;;;;;;;18.36;38.05;100391.34;5024215;28;20476;-86
2022/03/30 11:06:29;;;;;;;23.73;14.07;;;;;;;18.53;37.21;100386.66;5027114;28;20049;-85
2022/03/30 11:08:56;;;;;;;22.02;13.90;;;;;;;18.68;35.93;100375.94;5027612;28;20080;-86
2022/03/30 11:11:39;;;;;;;21.52;13.65;;;;;;;18.63;35.75;100372.97;5026017;28;20080;-86
2022/03/30 11:14:39;;;;;;;20.35;12.98;;;;;;;18.81;38.16;100372.63;5019307;28;20042;-87
2022/03/30 11:17:29;;;;;;;27.20;14.30;;;;;;;18.67;37.18;100368.91;5013957;28;20125;-86
2022/03/30 11:19:55;;;;;;;21.60;14.07;;;;;;;18.81;36.12;100361.88;5020041;28;20128;-86
2022/03/30 11:22:29;;;;;;;21.08;13.98;;;;;;;18.82;36.30;100364.38;5017523;28;20123;-86
2022/03/30 11:25:22;;;;;;;24.10;14.25;;;;;;;19.02;37.42;100358.50;5032460;28;20046;-86
2022/03/30 11:27:57;;;;;;;20.55;14.23;;;;;;;19.04;35.50;100356.47;5032073;28;20472;-86